Terminal Aerodrome Forecast
Issued by NWS Houston/Galveston, TX

Home | Current Version | Previous Version | Text Only | Print | Product List | Glossary On
Versions: 1 2 3 4 5 6 7 8 9 10 11 12 13 14 15 16 17 18 19
000
FTUS44 KHGX 301728
TAFCLL
TAF
KCLL 301728Z 3018/3118 10007KT P6SM FEW050
     FM310600 36005KT P6SM VCSH BKN035
     FM310900 36007KT P6SM SCT040
     FM311500 36014G22KT P6SM SKC=

USA.gov is the U.S. government's official web portal to all federal, state and local government web resources and services.